Saint-Basile, Canada
Current Conditions -  °F | °C
As of 1:18 AM on Sunday 26 Oct 2014 (Local Time) from CYOY Reporting Station
Overcast Overcast  
Wind Chill: 41°   Ceiling: 1500
Heat Index: 41°   Visibility: 9mi
Dew Point: 39°   Wind: 3mph
Humidity: 93%   Direction: 140°SE
Pressure: 29.36"   Gusts: NA
Location:  46.75°N, 71.82°W
Report Text: CYOY 260518Z AUTO 14003KT 100V180 9SM FEW005 SCT011 OVC015 05/04 A2936
Loading
Personal Weather Stations






























Interactive Weather Map
Tropical Storm Tracking
New forecast layout! Learn more

10-Day Weather Forecast

Advertisements
Track Severe Weather on mobile